Upland, Nebraska
Current Conditions -  °F | °C
As of 1:15 AM on Thursday 18 Dec 2014 (Local Time) from KHDE Reporting Station
Overcast Overcast  
Wind Chill: 18°   Ceiling: 1300
Heat Index: 24°   Visibility: 10mi
Dew Point: 21°   Wind: 5mph
Humidity: 87%   Direction: 140°SE
Pressure: 30.13"   Gusts: NA
Location:  40.32°N, 98.9°W
Report Text: KHDE 180715Z AUTO 14004KT 10SM BKN013 BKN019 OVC029 M04/M06 A3013 RMK AO2 T10431062
Loading
Personal Weather Stations






























Interactive Weather Map New forecast layout! Learn more

10-Day Weather Forecast

Advertisements
Track Severe Weather on mobile